Time;durP1;ratioP1;P1;durP2;ratioP2;P2;SDS_P1;SDS_P2;PMS_P1;PMS_P2;Temp;Humidity;BMP_temperature;BMP_pressure;BME280_temperature;BME280_humidity;BME280_pressure;Samples;Min_cycle;Max_cycle;Signal;HPM_P1;HPM_P2
2022/06/19 00:00:28;;;;;;;23.33;4.95;;;;;;;;;;5090019;28;20554;-76
2022/06/19 00:02:54;;;;;;;26.45;4.70;;;;;;;;;;5081742;28;20028;-76
2022/06/19 00:05:20;;;;;;;29.88;4.97;;;;;;;;;;5075934;28;20027;-76
2022/06/19 00:07:46;;;;;;;29.58;4.47;;;;;;;;;;5076643;28;20028;-76
2022/06/19 00:10:12;;;;;;;35.53;5.50;;;;;;;;;;5077112;28;20075;-76
2022/06/19 00:12:39;;;;;;;32.88;4.75;;;;;;;;;;5082804;28;20035;-75
2022/06/19 00:15:05;;;;;;;26.73;4.50;;;;;;;;;;5083997;28;20060;-75
2022/06/19 00:17:31;;;;;;;36.45;4.63;;;;;;;;;;5080327;28;20035;-76
2022/06/19 00:19:57;;;;;;;28.60;4.57;;;;;;;;;;5077720;28;20040;-77
2022/06/19 00:22:23;;;;;;;28.48;4.75;;;;;;;;;;5077981;28;20016;-78
2022/06/19 00:24:49;;;;;;;28.60;4.45;;;;;;;;;;5078976;28;20028;-76
2022/06/19 00:27:15;;;;;;;27.08;4.78;;;;;;;;;;5080220;28;20088;-77
2022/06/19 00:29:41;;;;;;;21.95;4.32;;;;;;;;;;5098862;28;20020;-74
2022/06/19 00:32:07;;;;;;;33.22;5.07;;;;;;;;;;5096945;28;20019;-74
2022/06/19 00:34:34;;;;;;;28.33;5.22;;;;;;;;;;5075733;28;20016;-75
2022/06/19 00:37:01;;;;;;;25.75;4.20;;;;;;;;;;5074952;28;20032;-76
2022/06/19 00:39:28;;;;;;;28.60;4.72;;;;;;;;;;5074865;28;20016;-76
2022/06/19 00:41:54;;;;;;;30.25;5.25;;;;;;;;;;5074919;28;20025;-75
2022/06/19 00:44:21;;;;;;;23.10;4.50;;;;;;;;;;5074799;28;20099;-76
2022/06/19 00:47:08;;;;;;;32.88;5.50;;;;;;;;;;5074777;28;20054;-75
2022/06/19 00:49:33;;;;;;;26.45;5.32;;;;;;;;;;5074899;28;20021;-76
2022/06/19 00:52:08;;;;;;;33.30;4.63;;;;;;;;;;5074597;28;20028;-74
2022/06/19 00:54:34;;;;;;;;;;;;;;;;;;5075060;28;20052;-75
2022/06/19 00:57:00;;;;;;;31.80;4.95;;;;;;;;;;5074393;28;19908;-76
2022/06/19 00:59:26;;;;;;;29.90;4.50;;;;;;;;;;5075308;28;20020;-75
2022/06/19 01:01:52;;;;;;;35.28;6.13;;;;;;;;;;5078975;28;20070;-76
2022/06/19 01:04:24;;;;;;;32.58;4.50;;;;;;;;;;5074273;28;20025;-75
2022/06/19 01:06:50;;;;;;;33.15;5.25;;;;;;;;;;5074304;28;20386;-75
2022/06/19 01:09:17;;;;;;;30.88;5.20;;;;;;;;;;5075127;28;20024;-74
2022/06/19 01:11:43;;;;;;;30.63;4.75;;;;;;;;;;5074487;28;20036;-75
2022/06/19 01:14:11;;;;;;;27.70;4.82;;;;;;;;;;5074621;28;20052;-75
2022/06/19 01:16:37;;;;;;;24.35;4.63;;;;;;;;;;5074191;28;20556;-77
2022/06/19 01:19:04;;;;;;;35.22;4.82;;;;;;;;;;5074251;28;20401;-75
2022/06/19 01:21:35;;;;;;;36.78;5.72;;;;;;;;;;5072885;28;20024;-75
2022/06/19 01:24:05;;;;;;;35.22;5.38;;;;;;;;;;5076054;28;20120;-76
2022/06/19 01:26:33;;;;;;;33.80;4.80;;;;;;;;;;5072604;28;20024;-76
2022/06/19 01:28:59;;;;;;;29.65;4.68;;;;;;;;;;5073728;28;20485;-75
2022/06/19 01:31:27;;;;;;;34.55;5.28;;;;;;;;;;5073942;28;20028;-77
2022/06/19 01:33:58;;;;;;;30.83;5.07;;;;;;;;;;5072701;28;20028;-76
2022/06/19 01:36:25;;;;;;;35.97;5.50;;;;;;;;;;5073748;28;20033;-75
2022/06/19 01:38:52;;;;;;;32.28;4.72;;;;;;;;;;5073768;28;20028;-75
2022/06/19 01:41:21;;;;;;;34.40;5.53;;;;;;;;;;5075594;28;20436;-75
2022/06/19 01:43:47;;;;;;;36.78;5.10;;;;;;;;;;5076932;28;20024;-76
2022/06/19 01:46:15;;;;;;;28.42;5.03;;;;;;;;;;5077513;28;20028;-75
2022/06/19 01:48:41;;;;;;;28.85;4.80;;;;;;;;;;5077247;28;20033;-75
2022/06/19 01:51:07;;;;;;;30.05;5.07;;;;;;;;;;5076497;28;20051;-75
2022/06/19 01:53:37;;;;;;;28.38;5.28;;;;;;;;;;5075317;28;20524;-75
2022/06/19 01:56:04;;;;;;;35.40;5.18;;;;;;;;;;5073598;28;20035;-76
2022/06/19 01:58:32;;;;;;;43.72;6.55;;;;;;;;;;5073876;28;20021;-75
2022/06/19 02:00:58;;;;;;;27.25;5.07;;;;;;;;;;5076528;28;20381;-77
2022/06/19 02:03:26;;;;;;;33.50;5.45;;;;;;;;;;5076640;28;20021;-77
2022/06/19 02:05:52;;;;;;;27.20;5.03;;;;;;;;;;5075607;28;20020;-76
2022/06/19 02:08:19;;;;;;;27.95;5.22;;;;;;;;;;5084154;28;20020;-73
2022/06/19 02:10:45;;;;;;;38.70;6.22;;;;;;;;;;5078181;28;20024;-74
2022/06/19 02:13:12;;;;;;;33.50;4.78;;;;;;;;;;5074649;28;20021;-75
2022/06/19 02:15:38;;;;;;;32.55;5.15;;;;;;;;;;5074906;28;20023;-75
2022/06/19 02:18:06;;;;;;;29.48;4.75;;;;;;;;;;5073684;28;20086;-74
2022/06/19 02:20:32;;;;;;;28.20;5.18;;;;;;;;;;5075775;28;20050;-73
2022/06/19 02:23:00;;;;;;;41.55;5.55;;;;;;;;;;5073912;28;20028;-74
2022/06/19 02:25:26;;;;;;;34.10;4.95;;;;;;;;;;5073000;28;20048;-75
2022/06/19 02:27:52;;;;;;;36.08;5.43;;;;;;;;;;5073399;28;20032;-76
2022/06/19 02:30:18;;;;;;;29.17;5.47;;;;;;;;;;5073526;28;20025;-72
2022/06/19 02:32:48;;;;;;;32.70;5.53;;;;;;;;;;5073397;28;20029;-74
2022/06/19 02:35:17;;;;;;;35.58;5.65;;;;;;;;;;5075054;28;20393;-75
2022/06/19 02:37:45;;;;;;;52.60;6.45;;;;;;;;;;5077705;28;20028;-75
2022/06/19 02:40:26;;;;;;;36.85;5.43;;;;;;;;;;5078269;28;20036;-74
2022/06/19 02:42:52;;;;;;;45.58;6.28;;;;;;;;;;5075688;28;20027;-74
2022/06/19 02:45:20;;;;;;;37.42;5.72;;;;;;;;;;5072538;28;20478;-76
2022/06/19 02:47:47;;;;;;;31.77;5.90;;;;;;;;;;5073889;28;20024;-74
2022/06/19 02:50:15;;;;;;;32.65;4.90;;;;;;;;;;5081974;28;20019;-75
2022/06/19 02:52:41;;;;;;;34.55;5.07;;;;;;;;;;5075745;28;20089;-75
2022/06/19 02:55:07;;;;;;;32.17;5.07;;;;;;;;;;5075394;28;20028;-75
2022/06/19 02:57:34;;;;;;;37.30;5.13;;;;;;;;;;5080369;28;20024;-80
2022/06/19 02:59:59;;;;;;;29.80;4.75;;;;;;;;;;5087944;28;20025;-78
2022/06/19 03:02:28;;;;;;;27.50;4.47;;;;;;;;;;5089801;28;20063;-79
2022/06/19 03:04:56;;;;;;;25.40;4.07;;;;;;;;;;5083225;28;20017;-78
2022/06/19 03:07:22;;;;;;;37.72;5.65;;;;;;;;;;5090291;28;20036;-79
2022/06/19 03:09:49;;;;;;;33.95;5.05;;;;;;;;;;5092122;28;20059;-78
2022/06/19 03:12:15;;;;;;;31.23;4.72;;;;;;;;;;5083915;28;20502;-78
2022/06/19 03:14:41;;;;;;;28.55;4.90;;;;;;;;;;5086647;28;20093;-79
2022/06/19 03:17:07;;;;;;;33.00;5.38;;;;;;;;;;5077889;28;20052;-78
2022/06/19 03:19:34;;;;;;;41.60;6.20;;;;;;;;;;5077580;28;20040;-79
2022/06/19 03:22:00;;;;;;;41.03;6.00;;;;;;;;;;5079665;28;20039;-80
2022/06/19 03:24:26;;;;;;;37.08;5.57;;;;;;;;;;5078391;28;20017;-78
2022/06/19 03:26:53;;;;;;;42.28;6.18;;;;;;;;;;5077975;28;20099;-79
2022/06/19 03:29:19;;;;;;;39.70;5.97;;;;;;;;;;5077144;28;20025;-78
2022/06/19 03:31:45;;;;;;;34.35;6.13;;;;;;;;;;5082897;28;20032;-78
2022/06/19 03:34:11;;;;;;;34.60;5.78;;;;;;;;;;5084989;28;20474;-79
2022/06/19 03:36:37;;;;;;;40.70;5.55;;;;;;;;;;5083142;28;20081;-80
2022/06/19 03:39:03;;;;;;;36.60;5.93;;;;;;;;;;5078948;28;20062;-79
2022/06/19 03:41:29;;;;;;;34.00;5.30;;;;;;;;;;5082532;28;20024;-79
2022/06/19 03:43:55;;;;;;;33.38;5.38;;;;;;;;;;5083273;28;20032;-79
2022/06/19 03:46:21;;;;;;;33.03;4.97;;;;;;;;;;5085986;28;20029;-77
2022/06/19 03:48:50;;;;;;;50.70;6.93;;;;;;;;;;5092784;28;20044;-78
2022/06/19 03:51:16;;;;;;;39.72;6.10;;;;;;;;;;5093231;28;20039;-79
2022/06/19 03:53:43;;;;;;;35.10;5.55;;;;;;;;;;5092728;28;20021;-78
2022/06/19 03:56:11;;;;;;;43.60;5.80;;;;;;;;;;5085879;28;20107;-78
2022/06/19 03:58:46;;;;;;;35.35;5.15;;;;;;;;;;5082821;28;20042;-78
2022/06/19 04:01:16;;;;;;;34.30;6.28;;;;;;;;;;5078918;28;20013;-79
2022/06/19 04:03:42;;;;;;;37.75;5.70;;;;;;;;;;5078312;28;20020;-78
2022/06/19 04:06:09;;;;;;;42.60;5.95;;;;;;;;;;5078906;28;20031;-79
2022/06/19 04:08:35;;;;;;;40.13;5.60;;;;;;;;;;5081164;28;20029;-80
2022/06/19 04:11:01;;;;;;;49.58;6.35;;;;;;;;;;5087758;28;20035;-80
2022/06/19 04:13:27;;;;;;;41.00;5.60;;;;;;;;;;5089374;28;20055;-77
2022/06/19 04:15:53;;;;;;;36.28;5.88;;;;;;;;;;5088566;28;20047;-76
2022/06/19 04:18:19;;;;;;;35.03;5.30;;;;;;;;;;5080296;28;20054;-76
2022/06/19 04:20:45;;;;;;;39.08;5.97;;;;;;;;;;5078195;28;20051;-77
2022/06/19 04:23:11;;;;;;;38.75;5.53;;;;;;;;;;5076667;28;20023;-75
2022/06/19 04:25:37;;;;;;;41.88;5.80;;;;;;;;;;5076393;28;20013;-76
2022/06/19 04:28:03;;;;;;;34.47;5.38;;;;;;;;;;5078627;28;20508;-75
2022/06/19 04:30:30;;;;;;;43.40;5.88;;;;;;;;;;5076006;28;20389;-77
2022/06/19 04:32:56;;;;;;;34.70;5.38;;;;;;;;;;5073458;28;20035;-76
2022/06/19 04:35:22;;;;;;;36.90;5.82;;;;;;;;;;5074908;28;20763;-77
2022/06/19 04:37:48;;;;;;;48.78;5.63;;;;;;;;;;5075088;28;20366;-74
2022/06/19 04:40:14;;;;;;;36.90;6.63;;;;;;;;;;5073771;28;20517;-75
2022/06/19 04:42:40;;;;;;;36.58;4.88;;;;;;;;;;5074466;28;20095;-75
2022/06/19 04:45:06;;;;;;;36.60;5.25;;;;;;;;;;5074955;28;20103;-76
2022/06/19 04:47:32;;;;;;;39.25;5.47;;;;;;;;;;5074852;28;20051;-74
2022/06/19 04:49:58;;;;;;;44.67;6.32;;;;;;;;;;5074068;28;20017;-73
2022/06/19 04:52:24;;;;;;;29.35;4.78;;;;;;;;;;5074531;28;20031;-75
2022/06/19 04:54:50;;;;;;;35.00;5.43;;;;;;;;;;5074303;28;20020;-73
2022/06/19 04:57:16;;;;;;;39.78;5.47;;;;;;;;;;5074134;28;20042;-72
2022/06/19 04:59:43;;;;;;;32.85;5.45;;;;;;;;;;5073830;28;20025;-73
2022/06/19 05:02:12;;;;;;;39.58;5.75;;;;;;;;;;5074364;28;20019;-72
2022/06/19 05:04:38;;;;;;;39.67;5.50;;;;;;;;;;5074433;28;20032;-73
2022/06/19 05:07:04;;;;;;;47.92;5.78;;;;;;;;;;5073942;28;20061;-74
2022/06/19 05:09:30;;;;;;;43.67;5.90;;;;;;;;;;5074035;28;20024;-74
2022/06/19 05:11:56;;;;;;;33.00;5.88;;;;;;;;;;5074226;28;20082;-73
2022/06/19 05:14:22;;;;;;;40.70;6.47;;;;;;;;;;5075141;28;20032;-73
2022/06/19 05:16:48;;;;;;;42.30;5.78;;;;;;;;;;5077661;28;20036;-73
2022/06/19 05:19:14;;;;;;;33.28;5.45;;;;;;;;;;5078121;28;20035;-72
2022/06/19 05:21:40;;;;;;;27.83;5.03;;;;;;;;;;5077934;28;20021;-72
2022/06/19 05:24:06;;;;;;;40.28;5.22;;;;;;;;;;5077539;28;20024;-73
2022/06/19 05:26:33;;;;;;;33.40;5.55;;;;;;;;;;5075644;28;20020;-72
2022/06/19 05:28:59;;;;;;;38.10;5.43;;;;;;;;;;5077566;28;20025;-73
2022/06/19 05:31:26;;;;;;;39.45;6.25;;;;;;;;;;5080510;28;20032;-75
2022/06/19 05:33:52;;;;;;;34.60;5.82;;;;;;;;;;5089491;28;20025;-74
2022/06/19 05:36:18;;;;;;;38.95;5.68;;;;;;;;;;5078781;28;20078;-79
2022/06/19 05:38:44;;;;;;;36.53;4.70;;;;;;;;;;5074404;28;20381;-76
2022/06/19 05:41:10;;;;;;;35.28;5.43;;;;;;;;;;5073269;28;20024;-76
2022/06/19 05:43:36;;;;;;;32.83;4.80;;;;;;;;;;5073189;28;20031;-76
2022/06/19 05:46:04;;;;;;;29.40;4.22;;;;;;;;;;5071454;28;20067;-75
2022/06/19 05:48:30;;;;;;;30.02;5.40;;;;;;;;;;5074188;28;20099;-76
2022/06/19 05:51:04;;;;;;;35.63;6.00;;;;;;;;;;5074388;28;20028;-75
2022/06/19 05:53:31;;;;;;;27.90;5.22;;;;;;;;;;5074597;28;20024;-75
2022/06/19 05:55:57;;;;;;;28.70;4.38;;;;;;;;;;5074615;28;20040;-76
2022/06/19 05:58:23;;;;;;;32.58;5.78;;;;;;;;;;5074458;28;20075;-75
2022/06/19 06:00:49;;;;;;;35.92;5.88;;;;;;;;;;5075387;28;20126;-76
2022/06/19 06:03:19;;;;;;;27.13;4.95;;;;;;;;;;5074409;28;20117;-76
2022/06/19 06:05:45;;;;;;;35.17;5.75;;;;;;;;;;5074478;28;20067;-76
2022/06/19 06:08:11;;;;;;;34.17;4.70;;;;;;;;;;5078198;28;20028;-75
2022/06/19 06:10:38;;;;;;;27.42;3.88;;;;;;;;;;5078462;28;20103;-76
2022/06/19 06:13:04;;;;;;;28.20;5.00;;;;;;;;;;5074079;28;20393;-76
2022/06/19 06:15:30;;;;;;;28.05;4.40;;;;;;;;;;5072901;28;20033;-76
2022/06/19 06:17:58;;;;;;;28.95;5.25;;;;;;;;;;5074662;28;20496;-78
2022/06/19 06:20:24;;;;;;;31.15;4.72;;;;;;;;;;5077528;28;20025;-79
2022/06/19 06:22:50;;;;;;;31.88;5.10;;;;;;;;;;5080681;28;20024;-76
2022/06/19 06:25:16;;;;;;;24.63;4.07;;;;;;;;;;5078686;28;20031;-80
2022/06/19 06:27:42;;;;;;;24.63;4.28;;;;;;;;;;5080250;28;20029;-78
2022/06/19 06:30:10;;;;;;;36.28;4.57;;;;;;;;;;5078268;28;20048;-79
2022/06/19 06:32:36;;;;;;;21.27;3.72;;;;;;;;;;5078476;28;20028;-79
2022/06/19 06:35:02;;;;;;;23.45;3.90;;;;;;;;;;5085892;28;20093;-79
2022/06/19 06:37:28;;;;;;;24.10;4.30;;;;;;;;;;5085193;28;20028;-80
2022/06/19 06:39:54;;;;;;;21.83;4.10;;;;;;;;;;5085630;28;20080;-75
2022/06/19 06:42:20;;;;;;;18.65;4.18;;;;;;;;;;5079401;28;20021;-75
2022/06/19 06:44:46;;;;;;;26.52;4.47;;;;;;;;;;5079942;28;20021;-75
2022/06/19 06:47:11;;;;;;;22.23;3.80;;;;;;;;;;5072366;28;20025;-74
2022/06/19 06:49:37;;;;;;;22.10;3.40;;;;;;;;;;5073094;28;20025;-74
2022/06/19 06:52:07;;;;;;;21.40;3.45;;;;;;;;;;5073731;28;20036;-74
2022/06/19 06:54:35;;;;;;;16.23;3.30;;;;;;;;;;5074216;28;20023;-76
2022/06/19 06:57:01;;;;;;;15.32;2.80;;;;;;;;;;5074161;28;20024;-76
2022/06/19 06:59:27;;;;;;;17.13;2.78;;;;;;;;;;5074016;28;20027;-77
2022/06/19 07:01:52;;;;;;;14.32;2.50;;;;;;;;;;5074527;28;20048;-78
2022/06/19 07:04:18;;;;;;;15.98;2.47;;;;;;;;;;5076235;28;20035;-77
2022/06/19 07:06:44;;;;;;;14.52;2.60;;;;;;;;;;5075480;28;20318;-76
2022/06/19 07:09:10;;;;;;;14.57;2.72;;;;;;;;;;5079203;28;20032;-76
2022/06/19 07:11:38;;;;;;;16.08;2.55;;;;;;;;;;5084439;28;20084;-77
2022/06/19 07:14:04;;;;;;;17.75;2.53;;;;;;;;;;5086969;28;20090;-75
2022/06/19 07:16:30;;;;;;;18.75;3.08;;;;;;;;;;5084247;28;20505;-76
2022/06/19 07:18:56;;;;;;;15.18;3.20;;;;;;;;;;5083827;28;20032;-77
2022/06/19 07:21:22;;;;;;;15.75;2.72;;;;;;;;;;5083624;28;20126;-76
2022/06/19 07:23:48;;;;;;;14.15;2.40;;;;;;;;;;5087854;28;20029;-77
2022/06/19 07:26:15;;;;;;;12.63;2.80;;;;;;;;;;5086841;28;20120;-75
2022/06/19 07:28:41;;;;;;;13.13;2.53;;;;;;;;;;5078195;28;20047;-76
2022/06/19 07:31:08;;;;;;;12.00;2.40;;;;;;;;;;5077585;28;20031;-76
2022/06/19 07:33:37;;;;;;;9.25;1.95;;;;;;;;;;5077097;28;20369;-77
2022/06/19 07:36:04;;;;;;;14.27;2.42;;;;;;;;;;5077185;28;20028;-76
2022/06/19 07:38:30;;;;;;;12.70;2.10;;;;;;;;;;5077352;28;20103;-77
2022/06/19 07:40:56;;;;;;;7.78;2.45;;;;;;;;;;5077643;28;20473;-75
2022/06/19 07:43:22;;;;;;;10.13;2.40;;;;;;;;;;5078820;28;20359;-77
2022/06/19 07:45:48;;;;;;;17.75;2.97;;;;;;;;;;5057222;28;20505;-76
2022/06/19 07:50:59;;;;;;;11.77;2.25;;;;;;;;;;5057858;28;20036;-77
2022/06/19 07:53:25;;;;;;;15.13;2.30;;;;;;;;;;5060582;28;20045;-77
2022/06/19 07:55:51;;;;;;;11.32;2.28;;;;;;;;;;5060882;28;20033;-77
2022/06/19 07:58:17;;;;;;;9.63;2.17;;;;;;;;;;5059089;28;20040;-76
2022/06/19 08:00:43;;;;;;;9.82;2.15;;;;;;;;;;5069507;28;20029;-76
2022/06/19 08:03:09;;;;;;;9.73;2.42;;;;;;;;;;5057073;28;20017;-75
2022/06/19 08:05:36;;;;;;;11.57;2.30;;;;;;;;;;5055583;28;20486;-75
2022/06/19 08:08:04;;;;;;;10.23;2.40;;;;;;;;;;5056803;28;20029;-76
2022/06/19 08:10:32;;;;;;;8.93;1.95;;;;;;;;;;5056189;28;20031;-76
2022/06/19 08:12:58;;;;;;;13.00;2.90;;;;;;;;;;5055821;28;20566;-77
2022/06/19 08:15:25;;;;;;;13.75;2.65;;;;;;;;;;5055793;28;20033;-77
2022/06/19 08:17:51;;;;;;;13.85;2.50;;;;;;;;;;5056713;28;20033;-74
2022/06/19 08:20:18;;;;;;;12.73;2.42;;;;;;;;;;5055892;28;20147;-76
2022/06/19 08:22:44;;;;;;;13.10;2.17;;;;;;;;;;5057125;28;20017;-76
2022/06/19 08:25:11;;;;;;;18.08;3.25;;;;;;;;;;5057893;28;20036;-75
2022/06/19 08:27:40;;;;;;;16.13;2.50;;;;;;;;;;5059432;28;20033;-75
2022/06/19 08:30:24;;;;;;;12.00;2.20;;;;;;;;;;5066982;28;20036;-77
2022/06/19 08:32:51;;;;;;;13.02;2.50;;;;;;;;;;5069686;28;20021;-75
2022/06/19 08:35:17;;;;;;;12.60;2.50;;;;;;;;;;5064025;28;20044;-77
2022/06/19 08:37:45;;;;;;;12.20;2.75;;;;;;;;;;5057752;28;20475;-76
2022/06/19 08:40:24;;;;;;;14.80;2.80;;;;;;;;;;5057849;28;20056;-74
2022/06/19 08:42:59;;;;;;;9.90;2.20;;;;;;;;;;5058508;28;20064;-75
2022/06/19 08:45:30;;;;;;;14.00;2.20;;;;;;;;;;5058518;28;20040;-76
2022/06/19 08:48:15;;;;;;;14.45;2.30;;;;;;;;;;5059898;28;20055;-76
2022/06/19 08:50:41;;;;;;;;;;;;;;;;;;5055835;28;20079;-76
2022/06/19 08:53:22;;;;;;;10.05;2.47;;;;;;;;;;5054380;28;20346;-75
2022/06/19 08:55:48;;;;;;;9.73;2.88;;;;;;;;;;5054061;28;20045;-76
2022/06/19 08:58:33;;;;;;;13.45;2.58;;;;;;;;;;5053935;28;20047;-75
2022/06/19 09:00:59;;;;;;;10.07;2.22;;;;;;;;;;5055790;28;20028;-76
2022/06/19 09:06:31;;;;;;;11.95;2.53;;;;;;;;;;5054060;28;20048;-74
2022/06/19 09:09:00;;;;;;;11.68;2.85;;;;;;;;;;5054302;28;20116;-76
2022/06/19 09:11:38;;;;;;;12.75;2.55;;;;;;;;;;5053333;28;20029;-75
2022/06/19 09:14:10;;;;;;;9.00;2.20;;;;;;;;;;5055408;28;20028;-76
2022/06/19 09:16:55;;;;;;;12.00;2.55;;;;;;;;;;5054528;28;20035;-75
2022/06/19 09:19:21;;;;;;;8.07;2.45;;;;;;;;;;5054888;28;20113;-77
2022/06/19 09:21:47;;;;;;;11.65;2.35;;;;;;;;;;5054189;28;20033;-75
2022/06/19 09:24:20;;;;;;;18.45;3.00;;;;;;;;;;5055333;28;20025;-77
2022/06/19 09:26:51;;;;;;;14.05;2.70;;;;;;;;;;5054039;28;20024;-76
2022/06/19 09:29:36;;;;;;;16.00;3.08;;;;;;;;;;5053929;28;20029;-76
2022/06/19 09:32:07;;;;;;;12.50;2.67;;;;;;;;;;5053632;28;20029;-76
2022/06/19 09:34:55;;;;;;;13.32;2.60;;;;;;;;;;5053443;28;20029;-76
2022/06/19 09:37:24;;;;;;;13.93;2.92;;;;;;;;;;5056856;28;20029;-76
2022/06/19 09:39:54;;;;;;;16.30;3.92;;;;;;;;;;5055304;28;20025;-75
2022/06/19 09:42:26;;;;;;;13.15;2.92;;;;;;;;;;5053998;28;20028;-75
2022/06/19 09:45:08;;;;;;;19.08;3.53;;;;;;;;;;5054190;28;20101;-76
2022/06/19 09:47:34;;;;;;;22.65;3.42;;;;;;;;;;5050889;28;20127;-76
2022/06/19 09:50:04;;;;;;;14.02;3.05;;;;;;;;;;5053437;28;20122;-76
2022/06/19 09:52:50;;;;;;;14.07;2.58;;;;;;;;;;5052130;28;20028;-74
2022/06/19 09:55:30;;;;;;;21.30;3.72;;;;;;;;;;5052313;28;20098;-75
2022/06/19 09:57:59;;;;;;;12.73;3.00;;;;;;;;;;5052370;28;20116;-75
2022/06/19 10:00:27;;;;;;;14.55;2.92;;;;;;;;;;5052990;28;20439;-75
2022/06/19 10:02:56;;;;;;;17.48;2.92;;;;;;;;;;5053576;28;20032;-74
2022/06/19 10:05:31;;;;;;;14.27;2.78;;;;;;;;;;5067960;28;20043;-76
2022/06/19 10:08:00;;;;;;;18.20;3.53;;;;;;;;;;5051448;28;20112;-75
2022/06/19 10:10:45;;;;;;;15.38;3.08;;;;;;;;;;5052963;28;20021;-76
2022/06/19 10:13:20;;;;;;;18.40;5.38;;;;;;;;;;5051518;28;20083;-74
2022/06/19 10:15:47;;;;;;;18.17;3.38;;;;;;;;;;5052752;28;20478;-74
2022/06/19 10:18:13;;;;;;;17.45;3.42;;;;;;;;;;5054511;28;20138;-75
2022/06/19 10:20:42;;;;;;;19.80;4.10;;;;;;;;;;5055372;28;20049;-75
2022/06/19 10:23:13;;;;;;;24.00;3.35;;;;;;;;;;5071181;28;20105;-77
2022/06/19 10:25:51;;;;;;;17.88;3.55;;;;;;;;;;5071924;28;20040;-75
2022/06/19 10:28:20;;;;;;;19.98;4.40;;;;;;;;;;5073552;28;20031;-75
2022/06/19 10:30:52;;;;;;;12.75;2.90;;;;;;;;;;5072603;28;20028;-76
2022/06/19 10:33:27;;;;;;;17.35;3.50;;;;;;;;;;5072460;28;20020;-75
2022/06/19 10:36:02;;;;;;;15.05;2.95;;;;;;;;;;5070460;28;20032;-76
2022/06/19 10:38:46;;;;;;;14.80;3.53;;;;;;;;;;5072323;28;20032;-75
2022/06/19 10:42:00;;;;;;;20.77;3.40;;;;;;;;;;5072855;28;20020;-76
2022/06/19 10:44:05;;;;;;;15.43;3.90;;;;;;;;;;5077396;28;20020;-74
2022/06/19 10:46:32;;;;;;;20.98;4.88;;;;;;;;;;5077869;28;20037;-76
2022/06/19 10:49:17;;;;;;;27.95;5.15;;;;;;;;;;5077995;28;20103;-76
2022/06/19 10:51:55;;;;;;;20.17;4.55;;;;;;;;;;5076882;28;20038;-77
2022/06/19 10:54:32;;;;;;;25.10;4.07;;;;;;;;;;5080753;28;20023;-75
2022/06/19 10:57:00;;;;;;;17.17;3.67;;;;;;;;;;5080174;28;20028;-75
2022/06/19 10:59:27;;;;;;;21.55;4.40;;;;;;;;;;5079346;28;20191;-76
2022/06/19 11:04:49;;;;;;;17.52;3.30;;;;;;;;;;5080377;28;20073;-77
2022/06/19 11:07:16;;;;;;;;;;;;;;;;;;5076958;28;20039;-76
2022/06/19 11:09:45;;;;;;;20.40;5.43;;;;;;;;;;5077122;28;19905;-75
2022/06/19 11:12:18;;;;;;;30.20;5.05;;;;;;;;;;5077144;28;20029;-74
2022/06/19 11:14:45;;;;;;;21.17;4.38;;;;;;;;;;5076972;28;20029;-73
2022/06/19 11:17:16;;;;;;;22.50;4.03;;;;;;;;;;5077535;28;20517;-77
2022/06/19 11:19:46;;;;;;;16.90;4.15;;;;;;;;;;5077744;28;20035;-76
2022/06/19 11:22:25;;;;;;;24.20;4.43;;;;;;;;;;5077711;28;20054;-76
2022/06/19 11:24:51;;;;;;;17.58;3.47;;;;;;;;;;5078788;28;20476;-75
2022/06/19 11:27:23;;;;;;;24.90;4.88;;;;;;;;;;5078609;28;20023;-75
2022/06/19 11:29:51;;;;;;;18.48;4.55;;;;;;;;;;5076834;28;20030;-76
2022/06/19 11:32:27;;;;;;;22.38;5.90;;;;;;;;;;5076291;28;20471;-76
2022/06/19 11:34:59;;;;;;;23.17;5.00;;;;;;;;;;5076154;28;20108;-75
2022/06/19 11:37:33;;;;;;;27.70;6.00;;;;;;;;;;5087377;28;20036;-75
2022/06/19 11:39:59;;;;;;;25.48;6.63;;;;;;;;;;5097756;28;20021;-75
2022/06/19 11:42:27;;;;;;;24.00;6.35;;;;;;;;;;5089340;28;20581;-74
2022/06/19 11:44:54;;;;;;;27.73;9.30;;;;;;;;;;5088326;28;20028;-76
2022/06/19 11:47:25;;;;;;;28.17;5.25;;;;;;;;;;5092080;28;20025;-74
2022/06/19 11:50:00;;;;;;;23.08;4.53;;;;;;;;;;5090703;28;20076;-74
2022/06/19 11:52:28;;;;;;;30.95;5.50;;;;;;;;;;5088266;28;20052;-75
2022/06/19 11:54:55;;;;;;;29.05;4.97;;;;;;;;;;5082569;28;20017;-76
2022/06/19 11:57:25;;;;;;;32.75;13.93;;;;;;;;;;5083964;28;20088;-76
2022/06/19 11:59:54;;;;;;;24.13;5.55;;;;;;;;;;5084443;28;20027;-76
2022/06/19 12:02:23;;;;;;;33.85;5.68;;;;;;;;;;5083718;28;20362;-77
2022/06/19 12:04:53;;;;;;;22.10;4.47;;;;;;;;;;5077662;28;20048;-75
2022/06/19 12:07:20;;;;;;;32.15;5.05;;;;;;;;;;5078063;28;20031;-78
2022/06/19 12:09:54;;;;;;;27.10;5.10;;;;;;;;;;5083421;28;20410;-77
2022/06/19 12:12:21;;;;;;;25.83;4.70;;;;;;;;;;5076723;28;20035;-76
2022/06/19 12:14:47;;;;;;;21.83;4.15;;;;;;;;;;5077752;28;20385;-77
2022/06/19 12:17:19;;;;;;;27.00;4.43;;;;;;;;;;5075227;28;20028;-75
2022/06/19 12:19:49;;;;;;;27.05;7.13;;;;;;;;;;5076071;28;20081;-76
2022/06/19 12:22:16;;;;;;;26.23;6.70;;;;;;;;;;5076570;28;20063;-75
2022/06/19 12:24:55;;;;;;;21.17;4.80;;;;;;;;;;5078275;28;20362;-75
2022/06/19 12:27:24;;;;;;;27.73;4.57;;;;;;;;;;5074340;28;20173;-75
2022/06/19 12:29:52;;;;;;;30.58;4.53;;;;;;;;;;5075715;28;20409;-75
2022/06/19 12:32:27;;;;;;;22.52;4.45;;;;;;;;;;5073441;28;20081;-74
2022/06/19 12:34:55;;;;;;;31.27;5.22;;;;;;;;;;5076383;28;20115;-76
2022/06/19 12:37:23;;;;;;;28.55;4.65;;;;;;;;;;5074298;28;20028;-75
2022/06/19 12:39:50;;;;;;;29.30;4.80;;;;;;;;;;5076551;28;20016;-74
2022/06/19 12:42:34;;;;;;;29.02;5.63;;;;;;;;;;5078434;28;20100;-76
2022/06/19 12:45:23;;;;;;;27.73;5.15;;;;;;;;;;5079156;28;20477;-74
2022/06/19 12:47:58;;;;;;;26.60;6.13;;;;;;;;;;5076863;28;20487;-74
2022/06/19 12:50:34;;;;;;;22.80;4.82;;;;;;;;;;5074623;28;20028;-75
2022/06/19 12:53:19;;;;;;;22.00;4.80;;;;;;;;;;5074896;28;20064;-72
2022/06/19 12:55:45;;;;;;;24.80;5.35;;;;;;;;;;5074442;28;20036;-75
2022/06/19 12:58:22;;;;;;;24.02;4.43;;;;;;;;;;5074919;28;20032;-73
2022/06/19 13:00:51;;;;;;;29.70;6.07;;;;;;;;;;5074859;28;20427;-74
2022/06/19 13:03:20;;;;;;;24.00;4.97;;;;;;;;;;5074217;28;20096;-73
2022/06/19 13:05:49;;;;;;;24.67;4.63;;;;;;;;;;5073380;28;20032;-74
2022/06/19 13:08:20;;;;;;;22.88;5.10;;;;;;;;;;5075787;28;20114;-74
2022/06/19 13:10:49;;;;;;;29.42;4.80;;;;;;;;;;5075528;28;20107;-74
2022/06/19 13:13:33;;;;;;;25.63;4.70;;;;;;;;;;5073510;28;20033;-73
2022/06/19 13:16:05;;;;;;;20.60;4.50;;;;;;;;;;5076299;28;20032;-74
2022/06/19 13:18:52;;;;;;;22.92;4.20;;;;;;;;;;5086820;28;20025;-75
2022/06/19 13:21:36;;;;;;;18.60;4.05;;;;;;;;;;5087024;28;20032;-74
2022/06/19 13:24:02;;;;;;;;;;;;;;;;;;5081892;28;20331;-75
2022/06/19 13:29:45;;;;;;;27.35;4.57;;;;;;;;;;5076912;28;20561;-75
2022/06/19 13:32:15;;;;;;;25.25;6.03;;;;;;;;;;5045801;28;20079;-74
2022/06/19 13:34:50;;;;;;;22.50;5.05;;;;;;;;;;5074908;28;20024;-75
2022/06/19 13:37:16;;;;;;;19.20;4.40;;;;;;;;;;5076929;28;20032;-75
2022/06/19 13:39:45;;;;;;;20.48;4.47;;;;;;;;;;5076238;28;20057;-75
2022/06/19 13:42:23;;;;;;;17.73;3.83;;;;;;;;;;5075716;28;20497;-75
2022/06/19 13:44:55;;;;;;;17.10;3.40;;;;;;;;;;5076026;28;20036;-77
2022/06/19 13:47:27;;;;;;;16.95;5.90;;;;;;;;;;5076230;28;20032;-76
2022/06/19 13:49:53;;;;;;;14.85;4.90;;;;;;;;;;5085199;28;20059;-75
2022/06/19 13:52:37;;;;;;;21.58;7.72;;;;;;;;;;5076357;28;20510;-75
2022/06/19 13:55:12;;;;;;;16.85;3.92;;;;;;;;;;5075202;28;20036;-74
2022/06/19 13:57:44;;;;;;;18.00;3.97;;;;;;;;;;5074135;28;20028;-75
2022/06/19 14:00:23;;;;;;;17.30;3.50;;;;;;;;;;5077116;28;20013;-74
2022/06/19 14:02:54;;;;;;;13.52;3.83;;;;;;;;;;5075836;28;20016;-75
2022/06/19 14:05:29;;;;;;;18.00;3.83;;;;;;;;;;5072981;28;20154;-74
2022/06/19 14:07:55;;;;;;;;;;;;;;;;;;5076716;28;20418;-76
2022/06/19 14:10:41;;;;;;;16.63;3.47;;;;;;;;;;5077477;28;19999;-76
2022/06/19 14:13:10;;;;;;;15.13;3.50;;;;;;;;;;5076220;28;20028;-77
2022/06/19 14:15:36;;;;;;;13.75;2.88;;;;;;;;;;5057279;28;20032;-77
2022/06/19 14:18:12;;;;;;;14.98;3.28;;;;;;;;;;5066244;28;20112;-78
2022/06/19 14:20:50;;;;;;;8.50;2.50;;;;;;;;;;5059548;28;20025;-76
2022/06/19 14:23:33;;;;;;;14.07;3.40;;;;;;;;;;5061482;28;20498;-76
2022/06/19 14:26:03;;;;;;;10.90;3.08;;;;;;;;;;5062182;28;20025;-76
2022/06/19 14:28:41;;;;;;;13.93;3.42;;;;;;;;;;5063528;28;20039;-76
2022/06/19 14:31:11;;;;;;;12.18;3.03;;;;;;;;;;5069813;28;20277;-78
2022/06/19 14:33:40;;;;;;;20.42;4.75;;;;;;;;;;5065247;28;20044;-77
2022/06/19 14:36:18;;;;;;;14.00;4.00;;;;;;;;;;5062502;28;20526;-77
2022/06/19 14:38:44;;;;;;;11.52;3.25;;;;;;;;;;5058873;28;20029;-77
2022/06/19 14:41:31;;;;;;;20.77;4.28;;;;;;;;;;5059677;28;20024;-76
2022/06/19 14:43:59;;;;;;;13.18;3.63;;;;;;;;;;5057385;28;20044;-76
2022/06/19 14:46:51;;;;;;;14.02;3.25;;;;;;;;;;5059122;28;20033;-78
2022/06/19 14:49:41;;;;;;;14.98;3.70;;;;;;;;;;5058622;28;20021;-76
2022/06/19 14:52:07;;;;;;;13.23;3.10;;;;;;;;;;5061425;28;20571;-76
2022/06/19 14:54:32;;;;;;;13.00;3.15;;;;;;;;;;5057493;28;20040;-75